Terminal Aerodrome Forecast
Issued by NWS Northern Indiana

Home | Current Version | Previous Version | Graphics & Text | Print | Product List | Glossary On
Versions: 1 2 3 4 5 6 7 8 9 10 11 12 13 14 15
000
FTUS43 KIWX 262339
TAFFWA
TAF
KFWA 262339Z 2700/2724 07015G22KT 4SM -RA BR SCT015 OVC035
      TEMPO 2700/2704 BKN015
     FM270400 03015G24KT 5SM -RA BR SCT006 OVC012
      TEMPO 2708/2712 2SM -RA BR OVC006
     FM271400 34016G25KT P6SM SCT010 OVC020
      TEMPO 2714/2718 3SM -SHRA OVC010=

USA.gov is the U.S. government's official web portal to all federal, state and local government web resources and services.